Time;durP1;ratioP1;P1;durP2;ratioP2;P2;SDS_P1;SDS_P2;PMS_P1;PMS_P2;Temp;Humidity;BMP_temperature;BMP_pressure;BME280_temperature;BME280_humidity;BME280_pressure;Samples;Min_cycle;Max_cycle;Signal;HPM_P1;HPM_P2
2021/08/02 00:01:39;;;;;;;17.30;7.32;;;;;;;;;;5075882;28;20123;-64
2021/08/02 00:04:08;;;;;;;18.85;7.13;;;;;;;;;;5075971;28;20020;-63
2021/08/02 00:06:54;;;;;;;16.98;6.53;;;;;;;;;;5093879;28;20032;-63
2021/08/02 00:09:32;;;;;;;16.45;6.93;;;;;;;;;;5075739;28;20505;-62
2021/08/02 00:11:59;;;;;;;;;;;;;;;;;;5076264;28;20495;-63
2021/08/02 00:14:25;;;;;;;16.65;7.00;;;;;;;;;;5093984;28;19904;-64
2021/08/02 00:16:52;;;;;;;19.20;7.30;;;;;;;;;;5094301;28;20021;-64
2021/08/02 00:19:19;;;;;;;18.38;7.40;;;;;;;;;;5095048;28;20129;-64
2021/08/02 00:21:46;;;;;;;18.33;7.32;;;;;;;;;;5076931;28;20024;-62
2021/08/02 00:24:12;;;;;;;16.38;6.57;;;;;;;;;;5094707;28;20360;-63
2021/08/02 00:26:39;;;;;;;15.80;7.05;;;;;;;;;;5093757;28;20031;-63
2021/08/02 00:29:05;;;;;;;18.15;6.65;;;;;;;;;;5093830;28;20103;-63
2021/08/02 00:31:31;;;;;;;16.70;6.60;;;;;;;;;;5093530;28;20130;-64
2021/08/02 00:33:57;;;;;;;20.55;7.95;;;;;;;;;;5092758;28;20024;-64
2021/08/02 00:36:42;;;;;;;20.38;7.72;;;;;;;;;;5074833;28;20449;-62
2021/08/02 00:39:08;;;;;;;17.35;7.10;;;;;;;;;;5093441;28;20020;-63
2021/08/02 00:41:34;;;;;;;15.75;7.03;;;;;;;;;;5093195;28;20039;-64
2021/08/02 00:44:00;;;;;;;19.00;7.80;;;;;;;;;;5093473;28;20031;-64
2021/08/02 00:46:27;;;;;;;18.05;8.23;;;;;;;;;;5093050;28;20028;-64
2021/08/02 00:49:02;;;;;;;19.60;8.07;;;;;;;;;;5075166;28;20472;-64
2021/08/02 00:51:33;;;;;;;18.27;8.30;;;;;;;;;;5093161;28;20077;-63
2021/08/02 00:54:00;;;;;;;17.75;7.53;;;;;;;;;;5075096;28;20476;-63
2021/08/02 00:56:30;;;;;;;18.48;8.25;;;;;;;;;;5075059;28;20417;-64
2021/08/02 00:58:57;;;;;;;21.90;8.48;;;;;;;;;;5074853;28;20539;-64
2021/08/02 01:01:24;;;;;;;19.92;8.82;;;;;;;;;;5092861;28;20020;-64
2021/08/02 01:03:50;;;;;;;18.33;8.65;;;;;;;;;;5074801;28;20137;-62
2021/08/02 01:06:17;;;;;;;19.38;8.02;;;;;;;;;;5092727;28;20027;-63
2021/08/02 01:08:44;;;;;;;18.23;8.50;;;;;;;;;;5074903;28;20040;-63
2021/08/02 01:11:11;;;;;;;21.25;9.05;;;;;;;;;;5092790;28;20067;-64
2021/08/02 01:13:38;;;;;;;18.73;8.13;;;;;;;;;;5092726;28;20035;-63
2021/08/02 01:16:06;;;;;;;18.50;8.70;;;;;;;;;;5092415;28;20023;-62
2021/08/02 01:18:32;;;;;;;20.90;8.00;;;;;;;;;;5074490;28;20490;-65
2021/08/02 01:21:02;;;;;;;20.73;9.48;;;;;;;;;;5074334;28;20276;-64
2021/08/02 01:23:28;;;;;;;19.45;9.50;;;;;;;;;;5074475;28;20490;-65
2021/08/02 01:25:55;;;;;;;22.25;9.20;;;;;;;;;;5074468;28;20051;-65
2021/08/02 01:28:21;;;;;;;20.10;9.10;;;;;;;;;;5092857;28;20024;-64
2021/08/02 01:30:47;;;;;;;18.25;8.43;;;;;;;;;;5092447;28;20085;-65
2021/08/02 01:33:14;;;;;;;21.55;9.43;;;;;;;;;;5092348;28;20042;-63
2021/08/02 01:35:41;;;;;;;18.88;9.32;;;;;;;;;;5092221;28;20024;-64
2021/08/02 01:38:07;;;;;;;21.75;8.80;;;;;;;;;;5074282;28;20140;-64
2021/08/02 01:40:33;;;;;;;19.90;9.75;;;;;;;;;;5092296;28;20031;-64
2021/08/02 01:43:05;;;;;;;17.80;7.97;;;;;;;;;;5092432;28;20503;-65
2021/08/02 01:45:51;;;;;;;19.58;8.10;;;;;;;;;;5091175;28;20027;-64
2021/08/02 01:48:25;;;;;;;18.90;8.30;;;;;;;;;;5074878;28;20036;-64
2021/08/02 01:51:13;;;;;;;19.70;8.52;;;;;;;;;;5092192;28;20032;-64
2021/08/02 01:53:55;;;;;;;20.40;8.68;;;;;;;;;;5092240;28;20031;-63
2021/08/02 01:56:25;;;;;;;19.80;8.27;;;;;;;;;;5091852;28;20069;-64
2021/08/02 01:59:01;;;;;;;21.52;8.77;;;;;;;;;;5092213;28;20468;-64
2021/08/02 02:01:27;;;;;;;19.55;7.68;;;;;;;;;;5092064;28;20077;-64
2021/08/02 02:03:54;;;;;;;18.05;8.30;;;;;;;;;;5074220;28;20055;-65
2021/08/02 02:06:26;;;;;;;17.52;7.78;;;;;;;;;;5091901;28;20028;-64
2021/08/02 02:08:51;;;;;;;17.63;7.85;;;;;;;;;;5074057;28;20016;-64
2021/08/02 02:11:18;;;;;;;16.55;7.65;;;;;;;;;;5074141;28;20028;-65
2021/08/02 02:13:50;;;;;;;19.33;8.60;;;;;;;;;;5073807;28;20021;-64
2021/08/02 02:16:18;;;;;;;16.25;7.53;;;;;;;;;;5073614;28;20024;-65
2021/08/02 02:18:49;;;;;;;20.65;8.40;;;;;;;;;;5073679;28;20024;-64
2021/08/02 02:21:16;;;;;;;16.75;7.75;;;;;;;;;;5091982;28;20020;-64
2021/08/02 02:23:42;;;;;;;17.23;7.80;;;;;;;;;;5073794;28;20066;-64
2021/08/02 02:26:09;;;;;;;19.42;9.23;;;;;;;;;;5091648;28;20024;-64
2021/08/02 02:28:35;;;;;;;18.75;8.98;;;;;;;;;;5091714;28;20073;-64
2021/08/02 02:31:01;;;;;;;19.00;8.23;;;;;;;;;;5091679;28;20074;-65
2021/08/02 02:33:28;;;;;;;20.27;9.00;;;;;;;;;;5091694;28;20024;-64
2021/08/02 02:35:55;;;;;;;20.92;8.77;;;;;;;;;;5073572;28;20046;-64
2021/08/02 02:38:21;;;;;;;17.90;8.45;;;;;;;;;;5073847;28;20029;-65
2021/08/02 02:40:47;;;;;;;25.00;9.60;;;;;;;;;;5091515;28;20110;-63
2021/08/02 02:43:13;;;;;;;19.55;9.70;;;;;;;;;;5091756;28;20024;-65
2021/08/02 02:45:40;;;;;;;19.83;9.07;;;;;;;;;;5073521;28;20157;-64
2021/08/02 02:48:06;;;;;;;19.38;8.80;;;;;;;;;;5073532;28;20027;-65
2021/08/02 02:50:34;;;;;;;20.50;8.38;;;;;;;;;;5091495;28;20036;-65
2021/08/02 02:53:04;;;;;;;21.13;9.27;;;;;;;;;;5093872;28;20115;-64
2021/08/02 02:55:31;;;;;;;20.05;9.48;;;;;;;;;;5091731;28;20031;-65
2021/08/02 02:57:57;;;;;;;20.88;10.45;;;;;;;;;;5095726;28;20081;-63
2021/08/02 03:00:24;;;;;;;21.95;9.82;;;;;;;;;;5077236;28;20066;-65
2021/08/02 03:02:51;;;;;;;22.55;9.88;;;;;;;;;;5077252;28;20067;-65
2021/08/02 03:05:18;;;;;;;22.35;9.73;;;;;;;;;;5076916;28;20476;-64
2021/08/02 03:07:45;;;;;;;21.15;10.73;;;;;;;;;;5095222;28;20028;-63
2021/08/02 03:10:13;;;;;;;22.10;9.77;;;;;;;;;;5095368;28;20035;-64
2021/08/02 03:12:39;;;;;;;21.75;10.57;;;;;;;;;;5094981;28;20395;-64
2021/08/02 03:15:05;;;;;;;21.83;9.98;;;;;;;;;;5095088;28;20035;-64
2021/08/02 03:17:31;;;;;;;22.58;10.18;;;;;;;;;;5076851;28;20024;-63
2021/08/02 03:19:57;;;;;;;19.45;9.20;;;;;;;;;;5095128;28;20020;-64
2021/08/02 03:22:33;;;;;;;19.90;9.63;;;;;;;;;;5095327;28;20028;-63
2021/08/02 03:25:06;;;;;;;23.50;10.15;;;;;;;;;;5095102;28;20129;-64
2021/08/02 03:27:36;;;;;;;23.63;10.25;;;;;;;;;;5095178;28;20020;-63
2021/08/02 03:30:04;;;;;;;21.90;10.18;;;;;;;;;;5076652;28;20034;-63
2021/08/02 03:32:31;;;;;;;18.42;9.20;;;;;;;;;;5094553;28;20484;-64
2021/08/02 03:35:01;;;;;;;21.48;9.13;;;;;;;;;;5094688;28;20398;-64
2021/08/02 03:37:27;;;;;;;19.00;9.73;;;;;;;;;;5094386;28;20043;-64
2021/08/02 03:39:54;;;;;;;20.58;9.60;;;;;;;;;;5094682;28;20095;-64
2021/08/02 03:42:21;;;;;;;19.98;8.27;;;;;;;;;;5094611;28;20040;-64
2021/08/02 03:44:49;;;;;;;21.15;9.48;;;;;;;;;;5076301;28;20042;-63
2021/08/02 03:47:15;;;;;;;20.73;8.85;;;;;;;;;;5094563;28;20024;-64
2021/08/02 03:49:41;;;;;;;22.35;10.13;;;;;;;;;;5076610;28;20031;-64
2021/08/02 03:52:07;;;;;;;19.30;9.70;;;;;;;;;;5076019;28;20032;-64
2021/08/02 03:54:33;;;;;;;20.17;10.13;;;;;;;;;;5076160;28;20035;-64
2021/08/02 03:57:00;;;;;;;20.92;9.48;;;;;;;;;;5094235;28;20031;-64
2021/08/02 03:59:27;;;;;;;19.80;9.02;;;;;;;;;;5094320;28;20023;-63
2021/08/02 04:01:53;;;;;;;20.33;9.65;;;;;;;;;;5094001;28;20029;-64
2021/08/02 04:04:19;;;;;;;19.73;9.73;;;;;;;;;;5094287;28;20024;-64
2021/08/02 04:06:45;;;;;;;21.15;9.82;;;;;;;;;;5093579;28;20028;-64
2021/08/02 04:09:12;;;;;;;19.70;10.05;;;;;;;;;;5093069;28;20024;-63
2021/08/02 04:11:38;;;;;;;25.40;11.18;;;;;;;;;;5093671;28;20511;-64
2021/08/02 04:14:05;;;;;;;20.85;9.48;;;;;;;;;;5093825;28;20395;-63
2021/08/02 04:16:31;;;;;;;20.75;9.43;;;;;;;;;;5075752;28;20406;-64
2021/08/02 04:18:57;;;;;;;18.52;9.68;;;;;;;;;;5075860;28;20048;-64
2021/08/02 04:21:23;;;;;;;18.77;9.07;;;;;;;;;;5093770;28;20016;-63
2021/08/02 04:23:49;;;;;;;20.73;9.20;;;;;;;;;;5093805;28;20039;-64
2021/08/02 04:26:15;;;;;;;19.08;9.02;;;;;;;;;;5093490;28;20020;-64
2021/08/02 04:28:42;;;;;;;19.73;9.18;;;;;;;;;;5075929;28;20034;-63
2021/08/02 04:31:08;;;;;;;19.10;8.80;;;;;;;;;;5093474;28;20032;-63
2021/08/02 04:33:34;;;;;;;21.85;9.65;;;;;;;;;;5093549;28;20352;-63
2021/08/02 04:36:00;;;;;;;21.80;10.13;;;;;;;;;;5093241;28;20024;-64
2021/08/02 04:38:26;;;;;;;20.98;9.13;;;;;;;;;;5093861;28;20042;-64
2021/08/02 04:40:52;;;;;;;19.67;8.30;;;;;;;;;;5093133;28;20048;-63
2021/08/02 04:43:18;;;;;;;20.20;9.20;;;;;;;;;;5093408;28;20440;-63
2021/08/02 04:45:44;;;;;;;18.60;9.35;;;;;;;;;;5092806;28;20059;-64
2021/08/02 04:48:10;;;;;;;31.50;9.68;;;;;;;;;;5093396;28;20115;-64
2021/08/02 04:50:38;;;;;;;25.92;10.23;;;;;;;;;;5093063;28;20028;-64
2021/08/02 04:53:03;;;;;;;19.87;8.13;;;;;;;;;;5093389;28;20023;-63
2021/08/02 04:55:30;;;;;;;19.38;9.07;;;;;;;;;;5074934;28;20277;-64
2021/08/02 04:57:56;;;;;;;18.95;9.32;;;;;;;;;;5093227;28;20388;-61
2021/08/02 05:00:22;;;;;;;19.42;9.10;;;;;;;;;;5093068;28;20020;-63
2021/08/02 05:02:48;;;;;;;17.50;9.05;;;;;;;;;;5093270;28;20200;-63
2021/08/02 05:05:13;;;;;;;18.95;8.85;;;;;;;;;;5092785;28;20055;-63
2021/08/02 05:07:40;;;;;;;18.95;8.70;;;;;;;;;;5093841;28;20028;-63
2021/08/02 05:10:06;;;;;;;19.98;8.70;;;;;;;;;;5094048;28;20017;-62
2021/08/02 05:12:32;;;;;;;21.52;9.45;;;;;;;;;;5093034;28;20078;-63
2021/08/02 05:15:08;;;;;;;20.75;9.35;;;;;;;;;;5092940;28;20032;-62
2021/08/02 05:17:34;;;;;;;20.52;9.07;;;;;;;;;;5092687;28;20111;-63
2021/08/02 05:20:00;;;;;;;17.40;7.90;;;;;;;;;;5074179;28;20028;-62
2021/08/02 05:22:26;;;;;;;19.70;8.77;;;;;;;;;;5092600;28;20069;-63
2021/08/02 05:24:52;;;;;;;18.40;8.45;;;;;;;;;;5092702;28;20073;-64
2021/08/02 05:27:18;;;;;;;20.98;8.85;;;;;;;;;;5092347;28;20438;-63
2021/08/02 05:29:44;;;;;;;20.67;8.80;;;;;;;;;;5073689;28;20024;-63
2021/08/02 05:32:10;;;;;;;16.55;8.20;;;;;;;;;;5091775;28;20043;-63
2021/08/02 05:34:40;;;;;;;17.25;8.30;;;;;;;;;;5092123;28;20400;-63
2021/08/02 05:37:06;;;;;;;20.00;8.60;;;;;;;;;;5092068;28;20020;-64
2021/08/02 05:39:32;;;;;;;18.98;8.82;;;;;;;;;;5073696;28;20023;-64
2021/08/02 05:41:58;;;;;;;25.13;9.25;;;;;;;;;;5074611;28;20038;-63
2021/08/02 05:44:24;;;;;;;19.48;8.27;;;;;;;;;;5092292;28;20032;-63
2021/08/02 05:46:50;;;;;;;19.58;8.20;;;;;;;;;;5091820;28;20040;-64
2021/08/02 05:49:16;;;;;;;20.70;9.30;;;;;;;;;;5091917;28;20024;-62
2021/08/02 05:51:42;;;;;;;25.42;8.82;;;;;;;;;;5108529;28;20037;-62
2021/08/02 05:54:08;;;;;;;24.85;10.13;;;;;;;;;;5111925;28;20448;-61
2021/08/02 05:56:34;;;;;;;19.60;8.90;;;;;;;;;;5111593;28;20110;-62
2021/08/02 05:59:00;;;;;;;17.38;8.00;;;;;;;;;;5094197;28;20028;-62
2021/08/02 06:01:26;;;;;;;17.17;8.07;;;;;;;;;;5094031;28;20015;-62
2021/08/02 06:03:52;;;;;;;21.65;8.48;;;;;;;;;;5112471;28;20407;-62
2021/08/02 06:06:18;;;;;;;19.27;8.38;;;;;;;;;;5111903;28;20081;-62
2021/08/02 06:08:44;;;;;;;20.77;8.55;;;;;;;;;;5112432;28;20020;-62
2021/08/02 06:11:10;;;;;;;18.48;8.23;;;;;;;;;;5093894;28;20085;-61
2021/08/02 06:13:36;;;;;;;18.73;8.75;;;;;;;;;;5113300;28;20028;-62
2021/08/02 06:16:02;;;;;;;20.20;8.15;;;;;;;;;;5112690;28;20543;-62
2021/08/02 06:18:29;;;;;;;18.48;8.07;;;;;;;;;;5094100;28;20058;-62
2021/08/02 06:20:55;;;;;;;16.17;8.30;;;;;;;;;;5112197;28;20024;-62
2021/08/02 06:23:21;;;;;;;19.73;7.78;;;;;;;;;;5112284;28;20024;-61
2021/08/02 06:25:47;;;;;;;25.75;8.40;;;;;;;;;;5112045;28;20035;-61
2021/08/02 06:28:13;;;;;;;17.10;8.10;;;;;;;;;;5112130;28;20471;-62
2021/08/02 06:30:39;;;;;;;17.83;7.85;;;;;;;;;;5112353;28;20112;-62
2021/08/02 06:33:05;;;;;;;17.58;7.55;;;;;;;;;;5115577;28;20436;-62
2021/08/02 06:35:31;;;;;;;19.40;7.90;;;;;;;;;;5116104;28;20016;-62
2021/08/02 06:37:57;;;;;;;17.98;7.30;;;;;;;;;;5116148;28;20032;-62
2021/08/02 06:40:23;;;;;;;18.77;7.60;;;;;;;;;;5115997;28;20069;-62
2021/08/02 06:42:49;;;;;;;19.70;8.15;;;;;;;;;;5098356;28;20073;-63
2021/08/02 06:45:15;;;;;;;18.25;8.07;;;;;;;;;;5116000;28;20020;-63
2021/08/02 06:47:41;;;;;;;24.17;8.77;;;;;;;;;;5098194;28;20459;-63
2021/08/02 06:50:07;;;;;;;20.20;8.80;;;;;;;;;;5115835;28;20107;-63
2021/08/02 06:52:33;;;;;;;18.02;7.97;;;;;;;;;;5115808;28;20023;-63
2021/08/02 06:54:59;;;;;;;19.60;8.60;;;;;;;;;;5115944;28;20015;-63
2021/08/02 06:57:25;;;;;;;21.30;8.23;;;;;;;;;;5115641;28;20479;-63
2021/08/02 06:59:55;;;;;;;15.57;7.32;;;;;;;;;;5116007;28;20024;-63
2021/08/02 07:02:21;;;;;;;19.50;8.50;;;;;;;;;;5115807;28;20464;-60
2021/08/02 07:04:47;;;;;;;44.00;8.40;;;;;;;;;;5115749;28;20099;-62
2021/08/02 07:07:13;;;;;;;19.52;8.30;;;;;;;;;;5097196;28;20051;-64
2021/08/02 07:09:39;;;;;;;19.95;7.90;;;;;;;;;;5115847;28;20042;-63
2021/08/02 07:12:05;;;;;;;21.73;8.50;;;;;;;;;;5097492;28;20024;-63
2021/08/02 07:14:31;;;;;;;16.63;8.07;;;;;;;;;;5115894;28;20391;-63
2021/08/02 07:16:57;;;;;;;18.08;8.77;;;;;;;;;;5097168;28;20019;-63
2021/08/02 07:19:23;;;;;;;18.13;8.48;;;;;;;;;;5116040;28;20152;-63
2021/08/02 07:21:49;;;;;;;16.65;8.20;;;;;;;;;;5097284;28;20465;-62
2021/08/02 07:24:15;;;;;;;18.10;8.30;;;;;;;;;;5096881;28;20040;-63
2021/08/02 07:26:41;;;;;;;16.23;8.10;;;;;;;;;;5115200;28;20027;-63
2021/08/02 07:29:07;;;;;;;21.17;8.60;;;;;;;;;;5116118;28;20020;-63
2021/08/02 07:31:33;;;;;;;21.60;8.52;;;;;;;;;;5115026;28;20023;-63
2021/08/02 07:33:59;;;;;;;17.27;8.20;;;;;;;;;;5115472;28;20047;-63
2021/08/02 07:36:25;;;;;;;16.73;8.55;;;;;;;;;;5115211;28;20103;-63
2021/08/02 07:38:51;;;;;;;18.67;8.48;;;;;;;;;;5097232;28;20031;-63
2021/08/02 07:41:17;;;;;;;16.70;7.43;;;;;;;;;;5096861;28;20032;-63
2021/08/02 07:43:44;;;;;;;20.58;8.30;;;;;;;;;;5115114;28;20054;-63
2021/08/02 07:46:10;;;;;;;16.08;7.60;;;;;;;;;;5115231;28;20510;-63
2021/08/02 07:48:36;;;;;;;21.02;8.80;;;;;;;;;;5115207;28;20108;-63
2021/08/02 07:51:02;;;;;;;17.38;7.93;;;;;;;;;;5114517;28;20080;-63
2021/08/02 07:53:28;;;;;;;15.80;7.85;;;;;;;;;;5100981;28;20480;-63
2021/08/02 07:55:54;;;;;;;17.20;7.93;;;;;;;;;;5094294;28;20028;-62
2021/08/02 07:58:20;;;;;;;20.65;8.10;;;;;;;;;;5094237;28;20024;-62
2021/08/02 08:00:46;;;;;;;17.15;8.82;;;;;;;;;;5094172;28;20476;-63
2021/08/02 08:03:13;;;;;;;18.63;8.70;;;;;;;;;;5075827;28;20028;-63
2021/08/02 08:05:39;;;;;;;17.95;8.25;;;;;;;;;;5094054;28;20497;-62
2021/08/02 08:08:05;;;;;;;17.05;8.50;;;;;;;;;;5094271;28;20126;-62
2021/08/02 08:10:31;;;;;;;15.98;7.72;;;;;;;;;;5075672;28;20024;-61
2021/08/02 08:12:58;;;;;;;18.35;8.40;;;;;;;;;;5075837;28;20031;-62
2021/08/02 08:15:25;;;;;;;17.98;9.55;;;;;;;;;;5093729;28;20025;-63
2021/08/02 08:17:51;;;;;;;20.60;9.05;;;;;;;;;;5093973;28;20081;-63
2021/08/02 08:20:19;;;;;;;18.88;8.90;;;;;;;;;;5093965;28;20024;-63
2021/08/02 08:22:45;;;;;;;20.33;9.07;;;;;;;;;;5093229;28;20055;-61
2021/08/02 08:25:12;;;;;;;17.05;8.80;;;;;;;;;;5093520;28;20056;-63
2021/08/02 08:27:38;;;;;;;19.33;9.30;;;;;;;;;;5075706;28;20035;-61
2021/08/02 08:30:08;;;;;;;16.55;9.50;;;;;;;;;;5075508;28;20378;-63
2021/08/02 08:32:34;;;;;;;18.75;9.93;;;;;;;;;;5074661;28;20399;-62
2021/08/02 08:35:00;;;;;;;17.55;8.65;;;;;;;;;;5092961;28;20031;-62
2021/08/02 08:37:26;;;;;;;17.55;9.63;;;;;;;;;;5074781;28;20077;-63
2021/08/02 08:39:52;;;;;;;17.05;10.35;;;;;;;;;;5075421;28;20024;-61
2021/08/02 08:42:18;;;;;;;16.98;9.95;;;;;;;;;;5075179;28;20109;-63
2021/08/02 08:44:44;;;;;;;18.15;9.93;;;;;;;;;;5093211;28;20020;-61
2021/08/02 08:47:11;;;;;;;19.60;10.00;;;;;;;;;;5093226;28;20028;-63
2021/08/02 08:49:37;;;;;;;18.38;10.55;;;;;;;;;;5074860;28;20124;-63
2021/08/02 08:52:04;;;;;;;17.35;9.32;;;;;;;;;;5093083;28;20092;-60
2021/08/02 08:54:30;;;;;;;16.45;9.98;;;;;;;;;;5092910;28;20034;-63
2021/08/02 08:56:57;;;;;;;15.90;9.73;;;;;;;;;;5074843;28;20111;-62
2021/08/02 08:59:22;;;;;;;20.92;9.15;;;;;;;;;;5093240;28;20031;-63
2021/08/02 09:01:59;;;;;;;18.63;9.20;;;;;;;;;;5092669;28;20028;-61
2021/08/02 09:04:29;;;;;;;18.02;10.57;;;;;;;;;;5092324;28;20028;-60
2021/08/02 09:06:58;;;;;;;20.92;10.43;;;;;;;;;;5074536;28;20102;-61
2021/08/02 09:09:24;;;;;;;;;;;;;;;;;;5075277;28;20540;-60
2021/08/02 09:11:50;;;;;;;16.20;9.60;;;;;;;;;;5092474;28;19911;-62
2021/08/02 09:14:17;;;;;;;15.20;9.40;;;;;;;;;;5092715;28;20053;-63
2021/08/02 09:16:52;;;;;;;16.48;9.25;;;;;;;;;;5074036;28;20048;-61
2021/08/02 09:19:18;;;;;;;17.67;9.45;;;;;;;;;;5092556;28;20020;-62
2021/08/02 09:21:50;;;;;;;17.17;9.35;;;;;;;;;;5092511;28;20447;-62
2021/08/02 09:24:28;;;;;;;19.67;10.48;;;;;;;;;;5092453;28;20126;-63
2021/08/02 09:26:54;;;;;;;15.50;9.65;;;;;;;;;;5093029;28;20440;-62
2021/08/02 09:29:31;;;;;;;16.55;9.38;;;;;;;;;;5075616;28;20085;-64
2021/08/02 09:31:57;;;;;;;16.20;9.40;;;;;;;;;;5092624;28;20038;-61
2021/08/02 09:34:23;;;;;;;15.73;9.10;;;;;;;;;;5075657;28;20047;-62
2021/08/02 09:36:58;;;;;;;15.48;9.18;;;;;;;;;;5092866;28;20107;-61
2021/08/02 09:39:31;;;;;;;14.60;9.30;;;;;;;;;;5092205;28;20480;-61
2021/08/02 09:42:08;;;;;;;15.93;10.00;;;;;;;;;;5074037;28;20456;-62
2021/08/02 09:44:34;;;;;;;15.77;9.55;;;;;;;;;;5092632;28;20046;-61
2021/08/02 09:47:02;;;;;;;19.25;10.10;;;;;;;;;;5091859;28;20020;-61
2021/08/02 09:49:31;;;;;;;15.65;9.80;;;;;;;;;;5092593;28;20486;-61
2021/08/02 09:51:57;;;;;;;15.43;10.13;;;;;;;;;;5092094;28;20036;-62
2021/08/02 09:54:28;;;;;;;18.45;10.45;;;;;;;;;;5074078;28;20046;-61
2021/08/02 09:56:54;;;;;;;14.93;10.27;;;;;;;;;;5091601;28;20016;-62
2021/08/02 09:59:20;;;;;;;15.25;10.40;;;;;;;;;;5091846;28;20082;-61
2021/08/02 10:01:49;;;;;;;17.77;11.07;;;;;;;;;;5091799;28;20024;-61
2021/08/02 10:04:16;;;;;;;15.10;10.23;;;;;;;;;;5073642;28;20395;-61
2021/08/02 10:06:42;;;;;;;15.57;9.93;;;;;;;;;;5090906;28;20155;-61
2021/08/02 10:09:10;;;;;;;15.32;10.30;;;;;;;;;;5092183;28;20020;-61
2021/08/02 10:11:37;;;;;;;16.40;9.98;;;;;;;;;;5091910;28;20034;-60
2021/08/02 10:14:03;;;;;;;16.45;10.27;;;;;;;;;;5091729;28;20438;-59
2021/08/02 10:16:30;;;;;;;16.88;10.27;;;;;;;;;;5073132;28;20372;-61
2021/08/02 10:19:03;;;;;;;15.70;10.30;;;;;;;;;;5091250;28;20025;-60
2021/08/02 10:21:37;;;;;;;16.48;10.73;;;;;;;;;;5091449;28;20107;-61
2021/08/02 10:24:10;;;;;;;16.38;10.57;;;;;;;;;;5091164;28;20024;-60
2021/08/02 10:26:36;;;;;;;14.82;9.90;;;;;;;;;;5073142;28;20439;-61
2021/08/02 10:29:04;;;;;;;16.27;10.23;;;;;;;;;;5073589;28;20051;-61
2021/08/02 10:31:41;;;;;;;15.80;10.20;;;;;;;;;;5073262;28;20104;-62
2021/08/02 10:34:20;;;;;;;15.13;10.60;;;;;;;;;;5091431;28;20028;-61
2021/08/02 10:37:00;;;;;;;17.17;10.13;;;;;;;;;;5091511;28;20024;-60
2021/08/02 10:39:28;;;;;;;16.23;10.20;;;;;;;;;;5091492;28;20094;-61
2021/08/02 10:42:04;;;;;;;16.20;10.25;;;;;;;;;;5091350;28;20048;-61
2021/08/02 10:44:30;;;;;;;16.75;10.70;;;;;;;;;;5073252;28;20034;-62
2021/08/02 10:47:04;;;;;;;17.83;11.00;;;;;;;;;;5073146;28;20123;-60
2021/08/02 10:49:30;;;;;;;16.35;9.95;;;;;;;;;;5073727;28;20024;-61
2021/08/02 10:51:56;;;;;;;16.65;10.10;;;;;;;;;;5073271;28;20020;-61
2021/08/02 10:54:22;;;;;;;16.10;10.00;;;;;;;;;;5091248;28;20495;-59
2021/08/02 10:56:48;;;;;;;17.67;10.23;;;;;;;;;;5091256;28;20024;-62
2021/08/02 10:59:15;;;;;;;16.23;10.60;;;;;;;;;;5073203;28;20024;-62
2021/08/02 11:01:46;;;;;;;15.27;10.70;;;;;;;;;;5073262;28;20112;-61
2021/08/02 11:04:12;;;;;;;14.98;10.38;;;;;;;;;;5091084;28;20505;-61
2021/08/02 11:06:38;;;;;;;16.10;10.70;;;;;;;;;;5091034;28;20434;-61
2021/08/02 11:09:04;;;;;;;15.90;10.80;;;;;;;;;;5073586;28;20016;-63
2021/08/02 11:11:31;;;;;;;17.63;11.50;;;;;;;;;;5091114;28;20021;-61
2021/08/02 11:14:05;;;;;;;16.92;10.75;;;;;;;;;;5073071;28;20376;-61
2021/08/02 11:16:36;;;;;;;16.63;11.10;;;;;;;;;;5072636;28;20020;-61
2021/08/02 11:19:02;;;;;;;15.32;11.02;;;;;;;;;;5076399;28;20024;-59
2021/08/02 11:21:28;;;;;;;14.80;10.82;;;;;;;;;;5094465;28;20035;-61
2021/08/02 11:23:54;;;;;;;16.42;11.35;;;;;;;;;;5076071;28;20027;-60
2021/08/02 11:26:21;;;;;;;14.80;10.77;;;;;;;;;;5094180;28;20458;-61
2021/08/02 11:28:49;;;;;;;17.88;10.73;;;;;;;;;;5094763;28;20046;-62
2021/08/02 11:31:16;;;;;;;16.60;11.40;;;;;;;;;;5094627;28;20020;-62
2021/08/02 11:33:43;;;;;;;16.00;10.85;;;;;;;;;;5094526;28;20307;-61
2021/08/02 11:36:19;;;;;;;15.75;10.80;;;;;;;;;;5094219;28;20103;-60
2021/08/02 11:38:46;;;;;;;16.13;10.30;;;;;;;;;;5076053;28;20020;-61
2021/08/02 11:41:28;;;;;;;15.10;9.70;;;;;;;;;;5077428;28;20036;-66
2021/08/02 11:43:57;;;;;;;15.98;10.00;;;;;;;;;;5094126;28;20540;-61
2021/08/02 11:46:23;;;;;;;18.00;11.10;;;;;;;;;;5093749;28;20052;-62
2021/08/02 11:48:49;;;;;;;17.45;10.68;;;;;;;;;;5076276;28;20035;-62
2021/08/02 11:51:17;;;;;;;15.20;10.07;;;;;;;;;;5093975;28;20030;-61
2021/08/02 11:53:43;;;;;;;16.92;9.85;;;;;;;;;;5093818;28;20031;-62
2021/08/02 11:56:09;;;;;;;16.08;10.43;;;;;;;;;;5075818;28;20028;-61
2021/08/02 11:58:42;;;;;;;16.10;10.80;;;;;;;;;;5093982;28;20394;-62
2021/08/02 12:01:09;;;;;;;17.80;10.38;;;;;;;;;;5094131;28;20503;-61
2021/08/02 12:03:35;;;;;;;14.85;10.43;;;;;;;;;;5076026;28;20028;-60
2021/08/02 12:06:02;;;;;;;16.75;10.80;;;;;;;;;;5094003;28;20024;-61
2021/08/02 12:08:28;;;;;;;15.25;10.43;;;;;;;;;;5093833;28;20028;-61
2021/08/02 12:10:59;;;;;;;16.95;11.40;;;;;;;;;;5075240;28;20027;-61
2021/08/02 12:13:25;;;;;;;16.88;11.73;;;;;;;;;;5075820;28;20028;-62
2021/08/02 12:15:56;;;;;;;17.42;10.98;;;;;;;;;;5093324;28;20095;-60
2021/08/02 12:18:23;;;;;;;14.90;10.50;;;;;;;;;;5093723;28;20016;-61
2021/08/02 12:20:49;;;;;;;19.15;11.00;;;;;;;;;;5094161;28;20032;-60
2021/08/02 12:23:22;;;;;;;16.83;10.60;;;;;;;;;;5074944;28;20024;-62
2021/08/02 12:25:48;;;;;;;23.60;11.52;;;;;;;;;;5093333;28;20047;-62
2021/08/02 12:28:14;;;;;;;18.13;11.02;;;;;;;;;;5074370;28;20036;-61
2021/08/02 12:30:42;;;;;;;19.48;10.82;;;;;;;;;;5093052;28;20089;-62
2021/08/02 12:33:09;;;;;;;23.30;11.40;;;;;;;;;;5093277;28;20119;-61
2021/08/02 12:35:36;;;;;;;17.58;10.63;;;;;;;;;;5092761;28;20331;-59
2021/08/02 12:38:03;;;;;;;21.83;11.32;;;;;;;;;;5093118;28;20020;-61
2021/08/02 12:40:29;;;;;;;15.00;10.70;;;;;;;;;;5093048;28;20085;-63
2021/08/02 12:42:55;;;;;;;16.08;10.60;;;;;;;;;;5093104;28;20055;-63
2021/08/02 12:45:22;;;;;;;16.80;10.35;;;;;;;;;;5092814;28;20032;-63
2021/08/02 12:47:49;;;;;;;20.90;11.23;;;;;;;;;;5092818;28;20407;-64
2021/08/02 12:50:16;;;;;;;15.90;10.95;;;;;;;;;;5093117;28;20050;-62
2021/08/02 12:52:44;;;;;;;15.98;10.75;;;;;;;;;;5093013;28;20099;-63
2021/08/02 12:55:11;;;;;;;16.60;10.73;;;;;;;;;;5092559;28;20115;-63
2021/08/02 12:57:43;;;;;;;15.23;10.60;;;;;;;;;;5073995;28;20028;-62
2021/08/02 13:00:16;;;;;;;18.27;10.90;;;;;;;;;;5091980;28;20065;-62
2021/08/02 13:02:42;;;;;;;16.15;10.85;;;;;;;;;;5074373;28;20123;-60
2021/08/02 13:05:08;;;;;;;15.43;10.73;;;;;;;;;;5092294;28;20399;-61
2021/08/02 13:07:34;;;;;;;20.73;11.65;;;;;;;;;;5075273;28;20035;-63
2021/08/02 13:10:00;;;;;;;17.23;10.93;;;;;;;;;;5074667;28;20032;-64
2021/08/02 13:12:26;;;;;;;18.15;11.88;;;;;;;;;;5092243;28;20027;-59
2021/08/02 13:14:53;;;;;;;20.85;11.85;;;;;;;;;;5073942;28;20024;-61
2021/08/02 13:17:19;;;;;;;15.57;11.23;;;;;;;;;;5092005;28;20113;-61
2021/08/02 13:19:45;;;;;;;17.55;10.98;;;;;;;;;;5074113;28;20569;-62
2021/08/02 13:22:13;;;;;;;16.55;10.77;;;;;;;;;;5092082;28;20539;-59
2021/08/02 13:27:24;;;;;;;16.55;11.50;;;;;;;;;;5092664;28;20502;-60
2021/08/02 13:29:50;;;;;;;15.15;10.80;;;;;;;;;;5073725;28;20096;-59
2021/08/02 13:32:16;;;;;;;15.20;10.77;;;;;;;;;;5091918;28;20024;-61
2021/08/02 13:34:46;;;;;;;15.63;10.77;;;;;;;;;;5092000;28;20024;-61
2021/08/02 13:37:13;;;;;;;16.02;10.95;;;;;;;;;;5073203;28;20023;-61
2021/08/02 13:39:39;;;;;;;15.70;10.90;;;;;;;;;;5073576;28;20518;-61
2021/08/02 13:42:07;;;;;;;15.70;10.35;;;;;;;;;;5073994;28;20467;-62
2021/08/02 13:44:33;;;;;;;17.48;10.70;;;;;;;;;;5092248;28;20070;-64
2021/08/02 13:47:00;;;;;;;16.52;11.00;;;;;;;;;;5073712;28;20035;-60
2021/08/02 13:49:26;;;;;;;17.58;11.02;;;;;;;;;;5073659;28;20024;-61
2021/08/02 13:51:53;;;;;;;15.68;11.30;;;;;;;;;;5091196;28;20099;-61
2021/08/02 13:54:19;;;;;;;16.05;10.77;;;;;;;;;;5091566;28;20412;-61
2021/08/02 13:56:45;;;;;;;15.82;10.50;;;;;;;;;;5091376;28;20031;-59
2021/08/02 13:59:13;;;;;;;15.98;10.52;;;;;;;;;;5100566;28;20103;-60
2021/08/02 14:01:39;;;;;;;15.55;10.15;;;;;;;;;;5111092;28;20472;-62
2021/08/02 14:04:05;;;;;;;16.55;10.80;;;;;;;;;;5111183;28;20028;-62
2021/08/02 14:06:32;;;;;;;16.27;11.00;;;;;;;;;;5092609;28;20081;-61
2021/08/02 14:08:58;;;;;;;17.23;10.73;;;;;;;;;;5111496;28;20027;-61
2021/08/02 14:11:25;;;;;;;15.95;10.25;;;;;;;;;;5093600;28;20032;-61
2021/08/02 14:13:53;;;;;;;14.70;10.60;;;;;;;;;;5111835;28;20031;-61
2021/08/02 14:16:20;;;;;;;15.57;10.20;;;;;;;;;;5111768;28;20044;-61
2021/08/02 14:18:46;;;;;;;17.27;10.68;;;;;;;;;;5111375;28;20269;-61
2021/08/02 14:21:13;;;;;;;14.95;10.25;;;;;;;;;;5092768;28;20028;-61
2021/08/02 14:23:43;;;;;;;15.70;9.90;;;;;;;;;;5111416;28;20562;-62
2021/08/02 14:26:09;;;;;;;14.98;10.38;;;;;;;;;;5111368;28;20023;-61
2021/08/02 14:28:35;;;;;;;14.85;9.85;;;;;;;;;;5111738;28;20024;-59
2021/08/02 14:31:02;;;;;;;17.58;10.98;;;;;;;;;;5112113;28;20028;-60